createdAt,value
2022-12-14T00:00:28.940Z,11.00
2022-12-14T00:02:58.909Z,10.43
2022-12-14T00:05:30.770Z,9.07
2022-12-14T00:08:00.130Z,9.97
2022-12-14T00:10:32.648Z,12.90
2022-12-14T00:13:03.354Z,13.00
2022-12-14T00:15:34.637Z,10.33
2022-12-14T00:18:05.001Z,8.93
2022-12-14T00:20:36.546Z,9.13
2022-12-14T00:23:07.319Z,8.43
2022-12-14T00:25:37.347Z,10.93
2022-12-14T00:28:08.361Z,9.17
2022-12-14T00:30:41.118Z,9.03
2022-12-14T00:33:13.768Z,9.60
2022-12-14T00:35:43.022Z,10.13
2022-12-14T00:38:13.921Z,9.50
2022-12-14T00:40:43.736Z,8.63
2022-12-14T00:43:15.007Z,7.47
2022-12-14T00:45:47.340Z,10.37
2022-12-14T00:48:19.994Z,8.00
2022-12-14T00:50:51.494Z,10.77
2022-12-14T00:53:24.350Z,8.50
2022-12-14T00:55:56.791Z,9.47
2022-12-14T00:58:27.984Z,8.97
2022-12-14T01:01:08.613Z,7.90
2022-12-14T01:03:38.419Z,7.07
2022-12-14T01:06:09.616Z,10.17
2022-12-14T01:08:43.460Z,7.57
2022-12-14T01:11:13.876Z,8.47
2022-12-14T01:13:49.539Z,9.97
2022-12-14T01:16:22.926Z,10.23
2022-12-14T01:18:53.765Z,7.43
2022-12-14T01:21:27.133Z,10.50
2022-12-14T01:24:00.675Z,8.43
2022-12-14T01:26:33.292Z,7.70
2022-12-14T01:29:05.498Z,7.60
2022-12-14T01:31:40.079Z,9.57
2022-12-14T01:34:12.570Z,6.27
2022-12-14T01:36:41.925Z,7.97
2022-12-14T01:39:14.785Z,8.50
2022-12-14T01:41:47.380Z,7.90
2022-12-14T01:45:02.116Z,7.00
2022-12-14T01:47:51.934Z,5.97
2022-12-14T01:50:27.771Z,5.23
2022-12-14T01:53:01.682Z,5.33
2022-12-14T01:55:37.727Z,6.93
2022-12-14T01:58:13.557Z,6.37
2022-12-14T02:00:46.030Z,6.80
2022-12-14T02:03:22.671Z,6.60
2022-12-14T02:05:56.950Z,7.50
2022-12-14T02:08:27.641Z,5.63
2022-12-14T02:11:02.822Z,6.20
2022-12-14T02:13:35.375Z,5.83
2022-12-14T02:16:05.569Z,6.17
2022-12-14T02:18:37.908Z,5.80
2022-12-14T02:21:23.757Z,8.23
2022-12-14T02:24:26.887Z,7.87
2022-12-14T02:27:15.877Z,6.10
2022-12-14T02:30:06.752Z,7.43
2022-12-14T02:33:00.513Z,8.73
2022-12-14T02:35:41.804Z,6.90
2022-12-14T02:38:37.111Z,6.97
2022-12-14T02:41:13.037Z,8.30
2022-12-14T02:43:50.461Z,7.27
2022-12-14T02:46:32.246Z,6.10
2022-12-14T02:49:07.700Z,12.73
2022-12-14T02:51:53.987Z,7.93
2022-12-14T02:54:29.098Z,7.97
2022-12-14T02:57:06.500Z,6.23
2022-12-14T02:59:37.108Z,6.90
2022-12-14T03:02:13.189Z,7.90
2022-12-14T03:04:52.027Z,6.43
2022-12-14T03:07:36.056Z,6.47
2022-12-14T03:10:13.173Z,7.30
2022-12-14T03:12:47.718Z,6.43
2022-12-14T03:15:20.974Z,7.50
2022-12-14T03:17:57.029Z,7.87
2022-12-14T03:20:32.382Z,5.60
2022-12-14T03:23:06.010Z,6.17
2022-12-14T03:25:42.390Z,4.80
2022-12-14T03:28:17.371Z,5.43
2022-12-14T03:31:01.519Z,6.17
2022-12-14T03:33:35.844Z,6.60
2022-12-14T03:36:14.901Z,5.57
2022-12-14T03:38:46.396Z,5.50
2022-12-14T03:41:24.191Z,7.73
2022-12-14T03:44:09.834Z,7.13
2022-12-14T03:46:47.649Z,7.10
2022-12-14T03:49:28.902Z,8.63
2022-12-14T03:52:07.528Z,5.37
2022-12-14T03:54:51.155Z,7.60
2022-12-14T03:57:35.212Z,4.93
2022-12-14T04:00:09.196Z,7.33
2022-12-14T04:02:53.723Z,5.87
2022-12-14T04:05:31.243Z,5.87
2022-12-14T04:08:08.457Z,7.00
2022-12-14T04:11:00.835Z,4.80
2022-12-14T04:14:00.314Z,5.67
2022-12-14T04:16:52.617Z,7.33
2022-12-14T04:19:26.945Z,5.37
2022-12-14T04:22:12.377Z,5.60
2022-12-14T04:25:02.933Z,5.10
2022-12-14T04:27:38.479Z,7.43
2022-12-14T04:30:10.751Z,5.03
2022-12-14T04:32:45.030Z,6.17
2022-12-14T04:35:21.766Z,5.97
2022-12-14T04:38:00.973Z,4.00
2022-12-14T04:40:35.140Z,8.13
2022-12-14T04:43:09.329Z,5.27
2022-12-14T04:45:49.321Z,7.10
2022-12-14T04:48:26.621Z,6.97
2022-12-14T04:51:05.198Z,4.20
2022-12-14T04:53:39.701Z,7.03
2022-12-14T04:56:15.457Z,6.43
2022-12-14T04:58:46.489Z,5.43
2022-12-14T05:01:30.172Z,5.13
2022-12-14T05:04:12.712Z,5.57
2022-12-14T05:06:53.965Z,6.53
2022-12-14T05:09:29.167Z,5.40
2022-12-14T05:12:05.978Z,6.13
2022-12-14T05:14:41.182Z,7.57
2022-12-14T05:17:12.727Z,5.93
2022-12-14T05:19:48.510Z,4.67
2022-12-14T05:22:21.018Z,4.63
2022-12-14T05:24:52.501Z,5.27
2022-12-14T05:27:22.965Z,5.77
2022-12-14T05:29:52.707Z,6.83
2022-12-14T05:32:23.650Z,4.97
2022-12-14T05:34:53.212Z,6.43
2022-12-14T05:37:23.842Z,5.37
2022-12-14T05:39:56.051Z,3.83
2022-12-14T05:42:25.771Z,5.03
2022-12-14T05:44:55.336Z,4.57
2022-12-14T05:47:27.955Z,4.83
2022-12-14T05:49:58.311Z,4.47
2022-12-14T05:52:28.169Z,5.03
2022-12-14T05:55:04.194Z,7.73
2022-12-14T05:57:35.949Z,7.43
2022-12-14T06:00:07.546Z,6.47
2022-12-14T06:02:38.037Z,4.70
2022-12-14T06:05:08.392Z,5.03
2022-12-14T06:07:37.859Z,6.00
2022-12-14T06:10:12.613Z,4.97
2022-12-14T06:12:47.231Z,3.63
2022-12-14T06:15:18.061Z,3.80
2022-12-14T06:17:48.650Z,7.60
2022-12-14T06:20:18.607Z,8.30
2022-12-14T06:22:54.021Z,4.57
2022-12-14T06:25:26.950Z,6.00
2022-12-14T06:27:57.250Z,6.13
2022-12-14T06:30:28.046Z,6.73
2022-12-14T06:32:58.048Z,8.03
2022-12-14T06:35:29.847Z,6.77
2022-12-14T06:38:00.083Z,6.77
2022-12-14T06:40:35.475Z,7.67
2022-12-14T06:43:05.198Z,6.10
2022-12-14T06:45:35.140Z,7.47
2022-12-14T06:48:04.618Z,7.07
2022-12-14T06:50:33.901Z,6.53
2022-12-14T06:53:03.205Z,6.93
2022-12-14T06:55:35.671Z,7.10
2022-12-14T06:58:06.510Z,6.20
2022-12-14T07:00:35.744Z,11.47
2022-12-14T07:03:05.702Z,7.77
2022-12-14T07:05:34.981Z,9.07
2022-12-14T07:08:04.653Z,7.50
2022-12-14T07:10:36.182Z,7.23
2022-12-14T07:13:07.152Z,6.40
2022-12-14T07:15:37.115Z,7.40
2022-12-14T07:18:07.479Z,5.53
2022-12-14T07:20:38.038Z,7.47
2022-12-14T07:23:08.721Z,5.50
2022-12-14T07:25:39.443Z,11.10
2022-12-14T07:28:09.294Z,7.03
2022-12-14T07:30:41.099Z,6.87
2022-12-14T07:33:12.399Z,5.83
2022-12-14T07:35:43.123Z,7.37
2022-12-14T07:38:13.368Z,6.10
2022-12-14T07:40:45.303Z,7.83
2022-12-14T07:43:19.968Z,4.27
2022-12-14T07:46:13.745Z,7.97
2022-12-14T07:48:49.195Z,8.80
2022-12-14T07:51:28.266Z,6.67
2022-12-14T07:54:02.384Z,7.87
2022-12-14T07:56:35.697Z,7.97
2022-12-14T07:59:08.596Z,7.10
2022-12-14T08:01:41.494Z,9.80
2022-12-14T08:04:13.218Z,8.57
2022-12-14T08:06:42.812Z,12.43
2022-12-14T08:09:13.228Z,10.53
2022-12-14T08:11:46.394Z,8.83
2022-12-14T08:14:18.795Z,6.80
2022-12-14T08:16:49.736Z,8.60
2022-12-14T08:19:20.604Z,8.07
2022-12-14T08:21:51.325Z,7.03
2022-12-14T08:24:21.052Z,9.13
2022-12-14T08:26:51.838Z,10.43
2022-12-14T08:29:22.412Z,6.70
2022-12-14T08:31:54.385Z,10.67
2022-12-14T08:34:24.178Z,8.43
2022-12-14T08:36:53.410Z,8.30
2022-12-14T08:39:23.903Z,11.23
2022-12-14T08:41:55.454Z,10.70
2022-12-14T08:44:25.458Z,9.63
2022-12-14T08:47:01.108Z,10.60
2022-12-14T08:49:32.553Z,9.87
2022-12-14T08:52:04.179Z,11.47
2022-12-14T08:54:36.015Z,10.97
2022-12-14T08:57:08.002Z,11.90
2022-12-14T09:00:00.910Z,12.93
2022-12-14T09:02:28.779Z,11.47
2022-12-14T09:04:58.052Z,11.30
2022-12-14T09:07:29.221Z,10.33
2022-12-14T09:10:00.117Z,11.03
2022-12-14T09:12:31.574Z,11.93
2022-12-14T09:15:01.364Z,12.33
2022-12-14T09:17:30.990Z,11.63
2022-12-14T09:20:00.959Z,12.40
2022-12-14T09:22:30.755Z,12.57
2022-12-14T09:25:00.393Z,13.23
2022-12-14T09:27:31.828Z,13.00
2022-12-14T09:30:01.794Z,11.73
2022-12-14T09:32:32.012Z,11.73
2022-12-14T09:35:01.315Z,11.40
2022-12-14T09:37:31.405Z,11.07
2022-12-14T09:40:00.668Z,11.10
2022-12-14T09:42:50.968Z,12.83
2022-12-14T09:45:30.290Z,11.67
2022-12-14T09:48:09.160Z,12.07
2022-12-14T09:50:40.801Z,10.43
2022-12-14T09:53:15.863Z,11.83
2022-12-14T09:55:48.172Z,10.13
2022-12-14T09:58:22.005Z,10.97
2022-12-14T10:00:59.283Z,10.83
2022-12-14T10:03:51.268Z,10.30
2022-12-14T10:06:36.800Z,11.27
2022-12-14T10:09:15.857Z,11.20
2022-12-14T10:11:53.598Z,10.30
2022-12-14T10:14:30.726Z,11.83
2022-12-14T10:17:07.083Z,9.03
2022-12-14T10:19:43.639Z,11.17
2022-12-14T10:22:17.573Z,11.33
2022-12-14T10:24:50.217Z,9.63
2022-12-14T10:27:23.676Z,11.17
2022-12-14T10:30:01.807Z,11.03
2022-12-14T10:32:35.236Z,10.47
2022-12-14T10:35:15.509Z,10.03
2022-12-14T10:37:46.968Z,10.50
2022-12-14T10:40:32.977Z,10.30
2022-12-14T10:43:16.836Z,9.03
2022-12-14T10:45:52.743Z,9.30
2022-12-14T10:48:47.402Z,10.70
2022-12-14T10:51:22.600Z,10.33
2022-12-14T10:53:57.065Z,10.97
2022-12-14T10:56:29.809Z,9.67
2022-12-14T10:59:36.673Z,10.87
2022-12-14T11:02:15.643Z,11.07
2022-12-14T11:04:51.995Z,9.83
2022-12-14T11:07:23.662Z,9.50
2022-12-14T11:09:53.312Z,8.80
2022-12-14T11:12:25.108Z,10.57
2022-12-14T11:14:58.146Z,9.33
2022-12-14T11:18:01.016Z,9.57
2022-12-14T11:20:30.539Z,9.27
2022-12-14T11:23:07.314Z,8.47
2022-12-14T11:25:39.797Z,8.90
2022-12-14T11:28:25.631Z,8.63
2022-12-14T11:31:03.171Z,8.97
2022-12-14T11:33:40.297Z,8.50
2022-12-14T11:36:10.947Z,9.10
2022-12-14T11:38:40.352Z,8.63
2022-12-14T11:41:12.072Z,9.27
2022-12-14T11:43:41.775Z,9.60
2022-12-14T11:46:11.424Z,9.87
2022-12-14T11:48:51.096Z,8.93
2022-12-14T11:51:20.502Z,10.17
2022-12-14T11:54:04.398Z,8.63
2022-12-14T11:56:37.908Z,8.87
2022-12-14T11:59:07.216Z,9.67
2022-12-14T12:01:37.017Z,8.83
2022-12-14T12:04:16.915Z,8.30
2022-12-14T12:06:47.454Z,8.10
2022-12-14T12:09:28.816Z,7.73
2022-12-14T12:11:59.556Z,8.27
2022-12-14T12:14:35.558Z,9.40
2022-12-14T12:17:20.039Z,8.70
2022-12-14T12:19:53.361Z,9.13
2022-12-14T12:22:25.714Z,8.87
2022-12-14T12:25:24.964Z,8.87
2022-12-14T12:28:00.848Z,8.43
2022-12-14T12:30:35.512Z,8.53
2022-12-14T12:33:20.507Z,9.43
2022-12-14T12:35:55.649Z,9.50
2022-12-14T12:38:40.924Z,8.93
2022-12-14T12:41:24.743Z,8.40
2022-12-14T12:44:00.399Z,8.57
2022-12-14T12:46:32.214Z,8.23
2022-12-14T12:49:07.104Z,8.07
2022-12-14T12:51:48.173Z,7.67
2022-12-14T12:54:23.790Z,8.83
2022-12-14T12:56:57.960Z,8.43
2022-12-14T12:59:37.041Z,8.17
2022-12-14T13:02:21.461Z,7.70
2022-12-14T13:04:54.036Z,9.00
2022-12-14T13:07:44.011Z,8.47
2022-12-14T13:10:20.643Z,7.87
2022-12-14T13:12:54.100Z,8.70
2022-12-14T13:15:28.447Z,7.97
2022-12-14T13:18:10.196Z,8.67
2022-12-14T13:20:46.136Z,8.17
2022-12-14T13:23:48.093Z,8.13
2022-12-14T13:26:57.691Z,7.73
2022-12-14T13:29:45.539Z,7.93
2022-12-14T13:32:42.645Z,8.33
2022-12-14T13:35:56.400Z,9.07
2022-12-14T13:38:58.462Z,7.23
2022-12-14T13:41:38.394Z,7.53
2022-12-14T13:44:38.669Z,7.80
2022-12-14T13:47:20.018Z,8.77
2022-12-14T13:50:26.872Z,8.13
2022-12-14T13:52:52.516Z,8.20
2022-12-14T13:55:36.904Z,8.23
2022-12-14T13:58:23.960Z,6.53
2022-12-14T14:01:03.302Z,5.73
2022-12-14T14:03:53.424Z,6.27
2022-12-14T14:06:59.541Z,4.73
2022-12-14T14:10:16.423Z,5.37
2022-12-14T14:12:48.272Z,4.67
2022-12-14T14:18:48.620Z,5.73
2022-12-14T14:22:06.288Z,5.70
2022-12-14T14:24:56.640Z,5.43
2022-12-14T14:27:30.909Z,5.53
2022-12-14T14:30:01.851Z,4.93
2022-12-14T14:32:43.517Z,5.00
2022-12-14T14:35:27.066Z,6.13
2022-12-14T14:37:59.879Z,5.93
2022-12-14T14:43:29.653Z,5.87
2022-12-14T14:46:03.651Z,6.57
2022-12-14T14:48:37.383Z,5.20
2022-12-14T14:51:20.245Z,6.20
2022-12-14T14:54:17.090Z,6.20
2022-12-14T14:56:54.699Z,5.70
2022-12-14T14:59:51.025Z,5.47
2022-12-14T15:02:33.576Z,6.03
2022-12-14T15:05:33.148Z,6.13
2022-12-14T15:07:58.721Z,7.73
2022-12-14T15:10:33.889Z,5.87
2022-12-14T15:13:06.950Z,7.77
2022-12-14T15:15:41.218Z,7.70
2022-12-14T15:18:23.019Z,6.40
2022-12-14T15:20:58.968Z,7.20
2022-12-14T15:23:33.322Z,6.40
2022-12-14T15:26:05.374Z,6.90
2022-12-14T15:28:34.673Z,6.47
2022-12-14T15:31:04.867Z,6.30
2022-12-14T15:33:38.311Z,7.53
2022-12-14T15:36:12.357Z,7.80
2022-12-14T15:38:41.520Z,7.93
2022-12-14T15:41:18.408Z,7.73
2022-12-14T15:43:50.224Z,5.93
2022-12-14T15:46:25.633Z,5.63
2022-12-14T15:49:00.559Z,6.40
2022-12-14T15:51:33.194Z,7.17
2022-12-14T15:54:05.627Z,16.07
2022-12-14T15:56:37.884Z,18.37
2022-12-14T15:59:16.549Z,9.73
2022-12-14T16:01:54.289Z,6.30
2022-12-14T16:04:29.140Z,5.70
2022-12-14T16:07:08.732Z,6.00
2022-12-14T16:09:43.176Z,6.37
2022-12-14T16:12:20.501Z,6.80
2022-12-14T16:14:54.262Z,6.93
2022-12-14T16:17:27.717Z,7.80
2022-12-14T16:20:01.232Z,8.07
2022-12-14T16:22:31.909Z,6.53
2022-12-14T16:25:22.317Z,6.50
2022-12-14T16:27:53.564Z,6.57
2022-12-14T16:30:28.591Z,5.07
2022-12-14T16:33:16.655Z,6.43
2022-12-14T16:35:58.553Z,6.60
2022-12-14T16:38:28.316Z,6.63
2022-12-14T16:41:00.403Z,6.50
2022-12-14T16:43:34.284Z,6.77
2022-12-14T16:46:21.524Z,5.87
2022-12-14T16:49:20.440Z,5.83
2022-12-14T16:52:08.652Z,6.07
2022-12-14T16:54:39.623Z,6.43
2022-12-14T16:57:18.782Z,6.20
2022-12-14T16:59:56.244Z,5.80
2022-12-14T17:02:30.365Z,6.57
2022-12-14T17:05:02.148Z,6.93
2022-12-14T17:07:34.129Z,7.00
2022-12-14T17:10:04.501Z,7.37
2022-12-14T17:12:33.715Z,6.97
2022-12-14T17:15:02.913Z,8.07
2022-12-14T17:17:36.501Z,7.20
2022-12-14T17:20:12.001Z,7.07
2022-12-14T17:22:49.324Z,7.90
2022-12-14T17:25:19.042Z,6.73
2022-12-14T17:27:49.336Z,6.93
2022-12-14T17:30:20.648Z,7.60
2022-12-14T17:32:50.693Z,7.43
2022-12-14T17:35:22.210Z,8.27
2022-12-14T17:37:53.703Z,6.03
2022-12-14T17:40:23.129Z,7.07
2022-12-14T17:42:56.738Z,6.93
2022-12-14T17:45:28.554Z,6.70
2022-12-14T17:47:58.627Z,7.30
2022-12-14T17:50:27.853Z,7.20
2022-12-14T17:52:59.021Z,6.13
2022-12-14T17:55:30.164Z,6.87
2022-12-14T17:58:00.740Z,7.43
2022-12-14T18:00:50.516Z,8.13
2022-12-14T18:03:20.655Z,8.63
2022-12-14T18:05:51.259Z,9.40
2022-12-14T18:08:23.809Z,7.57
2022-12-14T18:10:56.557Z,7.10
2022-12-14T18:13:27.432Z,8.23
2022-12-14T18:15:57.041Z,7.03
2022-12-14T18:18:29.845Z,8.50
2022-12-14T18:21:01.848Z,7.47
2022-12-14T18:23:33.648Z,7.67
2022-12-14T18:26:05.183Z,7.67
2022-12-14T18:28:34.511Z,6.93
2022-12-14T18:31:07.552Z,7.77
2022-12-14T18:33:36.824Z,6.83
2022-12-14T18:36:06.837Z,10.30
2022-12-14T18:38:37.448Z,10.60
2022-12-14T18:41:07.015Z,11.50
2022-12-14T18:43:43.170Z,9.07
2022-12-14T18:46:13.528Z,9.07
2022-12-14T18:48:43.794Z,7.80
2022-12-14T18:51:16.173Z,9.23
2022-12-14T18:53:46.844Z,7.27
2022-12-14T18:56:16.207Z,7.30
2022-12-14T18:58:46.463Z,6.93
2022-12-14T19:01:18.959Z,6.80
2022-12-14T19:03:48.996Z,6.50
2022-12-14T19:06:43.557Z,7.07
2022-12-14T19:09:11.735Z,6.83
2022-12-14T19:11:42.721Z,5.97
2022-12-14T19:14:12.495Z,6.50
2022-12-14T19:16:41.898Z,7.83
2022-12-14T19:19:11.144Z,7.93
2022-12-14T19:21:40.658Z,6.83
2022-12-14T19:24:13.617Z,7.13
2022-12-14T19:26:42.905Z,6.57
2022-12-14T19:29:12.159Z,6.40
2022-12-14T19:31:41.338Z,5.83
2022-12-14T19:34:13.033Z,7.97
2022-12-14T19:36:42.314Z,7.53
2022-12-14T19:39:14.596Z,5.87
2022-12-14T19:41:43.803Z,6.53
2022-12-14T19:44:16.647Z,6.67
2022-12-14T19:46:46.065Z,7.37
2022-12-14T19:49:17.425Z,7.53
2022-12-14T19:51:46.829Z,6.30
2022-12-14T19:54:17.890Z,13.63
2022-12-14T19:56:49.266Z,7.97
2022-12-14T19:59:18.630Z,8.23
2022-12-14T20:01:48.940Z,8.17
2022-12-14T20:04:18.565Z,7.33
2022-12-14T20:06:50.786Z,7.90
2022-12-14T20:09:21.409Z,10.17
2022-12-14T20:11:50.805Z,8.03
2022-12-14T20:14:20.104Z,7.97
2022-12-14T20:16:49.432Z,7.83
2022-12-14T20:19:18.858Z,9.43
2022-12-14T20:21:48.300Z,8.40
2022-12-14T20:24:17.963Z,10.30
2022-12-14T20:26:49.281Z,11.03
2022-12-14T20:29:18.690Z,9.57
2022-12-14T20:31:48.023Z,7.13
2022-12-14T20:34:17.480Z,7.37
2022-12-14T20:36:46.716Z,7.83
2022-12-14T20:39:15.958Z,9.60
2022-12-14T20:41:45.236Z,11.20
2022-12-14T20:44:16.233Z,7.67
2022-12-14T20:46:47.453Z,10.03
2022-12-14T20:49:19.731Z,9.27
2022-12-14T20:51:51.224Z,10.17
2022-12-14T20:54:22.301Z,8.80
2022-12-14T20:56:54.616Z,8.63
2022-12-14T20:59:28.941Z,7.80
2022-12-14T21:02:00.693Z,8.77
2022-12-14T21:04:31.029Z,11.37
2022-12-14T21:07:03.751Z,8.20
2022-12-14T21:09:33.059Z,8.47
2022-12-14T21:12:22.772Z,6.37
2022-12-14T21:14:57.950Z,7.87
2022-12-14T21:17:31.642Z,7.47
2022-12-14T21:20:02.197Z,6.77
2022-12-14T21:22:32.174Z,6.90
2022-12-14T21:25:05.682Z,7.27
2022-12-14T21:27:38.776Z,5.00
2022-12-14T21:30:13.173Z,6.30
2022-12-14T21:32:44.691Z,7.17
2022-12-14T21:35:21.056Z,5.30
2022-12-14T21:37:51.487Z,7.03
2022-12-14T21:40:37.267Z,6.27
2022-12-14T21:43:07.601Z,6.73
2022-12-14T21:45:42.457Z,5.60
2022-12-14T21:48:12.548Z,6.47
2022-12-14T21:50:46.077Z,6.63
2022-12-14T21:53:18.570Z,3.80
2022-12-14T21:55:51.206Z,7.10
2022-12-14T21:58:20.297Z,7.20
2022-12-14T22:00:55.317Z,5.80
2022-12-14T22:03:28.018Z,6.07
2022-12-14T22:06:00.724Z,6.57
2022-12-14T22:08:32.442Z,8.20
2022-12-14T22:11:05.455Z,7.53
2022-12-14T22:13:38.924Z,5.93
2022-12-14T22:16:13.969Z,5.33
2022-12-14T22:18:45.210Z,5.30
2022-12-14T22:21:15.010Z,6.83
2022-12-14T22:23:44.857Z,6.17
2022-12-14T22:26:14.506Z,6.03
2022-12-14T22:28:44.837Z,6.03
2022-12-14T22:31:17.472Z,6.73
2022-12-14T22:33:50.180Z,6.80
2022-12-14T22:36:21.091Z,6.70
2022-12-14T22:38:51.034Z,6.17
2022-12-14T22:41:22.624Z,7.20
2022-12-14T22:43:57.007Z,6.53
2022-12-14T22:46:29.894Z,5.83
2022-12-14T22:49:02.170Z,5.57
2022-12-14T22:51:31.808Z,5.33
2022-12-14T22:54:01.242Z,4.40
2022-12-14T22:56:37.771Z,5.40
2022-12-14T22:59:14.917Z,4.77
2022-12-14T23:01:49.822Z,4.10
2022-12-14T23:04:20.584Z,4.90
2022-12-14T23:06:50.701Z,6.53
2022-12-14T23:09:37.559Z,6.90
2022-12-14T23:12:26.740Z,6.50
2022-12-14T23:15:13.429Z,6.33
2022-12-14T23:18:01.968Z,7.70
2022-12-14T23:20:52.794Z,5.87
2022-12-14T23:23:39.523Z,5.70
2022-12-14T23:26:28.575Z,5.33
2022-12-14T23:29:15.593Z,4.83
2022-12-14T23:32:02.685Z,5.30
2022-12-14T23:34:51.077Z,4.80
2022-12-14T23:37:37.429Z,5.90
2022-12-14T23:40:25.074Z,5.37
2022-12-14T23:43:11.593Z,8.53
2022-12-14T23:45:58.382Z,6.67
2022-12-14T23:48:44.866Z,6.03
2022-12-14T23:51:32.878Z,4.63
2022-12-14T23:54:19.410Z,4.67
2022-12-14T23:57:05.908Z,3.93
2022-12-14T23:59:52.499Z,4.40
